Time;durP1;ratioP1;P1;durP2;ratioP2;P2;SDS_P1;SDS_P2;PMS_P1;PMS_P2;Temp;Humidity;BMP_temperature;BMP_pressure;BME280_temperature;BME280_humidity;BME280_pressure;Samples;Min_cycle;Max_cycle;Signal;HPM_P1;HPM_P2
2023/01/26 00:00:53;;;;;;;25.20;12.77;;;6.70;53.20;;;;;;5017283;28;21148;-89
2023/01/26 00:03:20;;;;;;;25.30;12.80;;;6.70;52.90;;;;;;5025521;28;20469;-87
2023/01/26 00:05:48;;;;;;;30.27;13.00;;;6.70;53.00;;;;;;5015894;28;20444;-88
2023/01/26 00:08:16;;;;;;;27.50;13.17;;;6.60;52.90;;;;;;5025831;28;20459;-86
2023/01/26 00:10:49;;;;;;;23.63;11.30;;;6.40;52.70;;;;;;5031622;28;20472;-87
2023/01/26 00:13:18;;;;;;;27.07;11.30;;;6.40;53.30;;;;;;5023322;28;20851;-88
2023/01/26 00:15:45;;;;;;;24.80;12.13;;;6.60;53.40;;;;;;5012574;28;20448;-89
2023/01/26 00:18:12;;;;;;;26.63;13.20;;;6.70;53.60;;;;;;5040430;28;20474;-88
2023/01/26 00:20:39;;;;;;;31.27;13.43;;;6.70;53.00;;;;;;5013688;28;20456;-88
2023/01/26 00:23:06;;;;;;;26.70;13.97;;;6.70;53.00;;;;;;5022087;28;20452;-86
2023/01/26 00:25:34;;;;;;;28.17;12.43;;;6.80;53.30;;;;;;5011198;28;20450;-87
2023/01/26 00:28:01;;;;;;;26.70;13.53;;;6.80;53.00;;;;;;5005921;28;20460;-89
2023/01/26 00:30:28;;;;;;;28.10;13.90;;;6.80;52.90;;;;;;5022774;28;20443;-88
2023/01/26 00:32:58;;;;;;;26.37;13.10;;;6.90;52.60;;;;;;5006702;28;20527;-89
2023/01/26 00:35:25;;;;;;;33.83;15.10;;;6.90;52.80;;;;;;5023291;28;20444;-89
2023/01/26 00:37:53;;;;;;;31.53;13.20;;;6.90;52.90;;;;;;5008419;28;21163;-88
2023/01/26 00:40:20;;;;;;;28.03;12.87;;;6.90;52.90;;;;;;5011919;28;20821;-86
2023/01/26 00:42:48;;;;;;;28.10;13.27;;;6.90;52.60;;;;;;5002498;28;20476;-88
2023/01/26 00:45:15;;;;;;;28.53;12.47;;;7.00;52.60;;;;;;5012328;28;21145;-88
2023/01/26 00:47:44;;;;;;;32.80;13.87;;;6.80;51.90;;;;;;5029797;28;20488;-88
2023/01/26 00:50:11;;;;;;;31.87;11.70;;;6.80;52.10;;;;;;5020581;28;20524;-87
2023/01/26 00:52:39;;;;;;;33.47;13.90;;;6.80;52.60;;;;;;5015986;28;20465;-88
2023/01/26 00:55:06;;;;;;;28.53;13.50;;;6.70;52.70;;;;;;5013062;28;20585;-87
2023/01/26 00:57:33;;;;;;;28.03;13.40;;;6.80;52.70;;;;;;5024007;28;20449;-88
2023/01/26 01:00:01;;;;;;;30.60;12.10;;;6.80;52.90;;;;;;5048255;28;20472;-89
2023/01/26 01:02:29;;;;;;;35.77;13.77;;;6.70;53.00;;;;;;5007664;28;20477;-88
2023/01/26 01:04:55;;;;;;;26.47;13.10;;;6.80;52.90;;;;;;5022831;28;20452;-89
2023/01/26 01:07:23;;;;;;;28.57;13.90;;;6.80;52.80;;;;;;5030185;28;20878;-89
2023/01/26 01:09:50;;;;;;;34.10;15.43;;;6.80;53.10;;;;;;5024981;28;20481;-87
2023/01/26 01:12:17;;;;;;;32.37;13.97;;;6.60;53.10;;;;;;5013357;28;20864;-87
2023/01/26 01:14:44;;;;;;;38.80;16.17;;;6.60;53.10;;;;;;5019313;28;20448;-88
2023/01/26 01:17:12;;;;;;;36.93;17.20;;;6.60;52.90;;;;;;5013648;28;20995;-88
2023/01/26 01:19:40;;;;;;;32.60;13.50;;;6.70;53.10;;;;;;5032982;28;20518;-88
2023/01/26 01:22:07;;;;;;;32.37;13.87;;;6.50;52.90;;;;;;5042466;28;20457;-85
2023/01/26 01:24:35;;;;;;;33.63;14.20;;;6.20;53.30;;;;;;5029541;28;20456;-88
2023/01/26 01:27:02;;;;;;;29.60;13.77;;;6.20;53.80;;;;;;5009787;28;20503;-87
2023/01/26 01:29:29;;;;;;;32.03;15.50;;;6.30;53.80;;;;;;5028646;28;20452;-88
2023/01/26 01:31:56;;;;;;;35.90;15.40;;;6.50;53.80;;;;;;5009353;28;20468;-88
2023/01/26 01:34:25;;;;;;;32.13;13.73;;;6.70;53.50;;;;;;5038209;28;21023;-88
2023/01/26 01:36:52;;;;;;;36.60;14.20;;;6.80;53.10;;;;;;5018135;28;20444;-88
2023/01/26 01:39:18;;;;;;;30.47;13.83;;;6.70;53.10;;;;;;5005955;28;20556;-89
2023/01/26 01:41:45;;;;;;;36.07;14.87;;;6.80;53.40;;;;;;5017120;28;20457;-88
2023/01/26 01:44:15;;;;;;;33.70;14.33;;;6.80;53.40;;;;;;5009606;28;20453;-86
2023/01/26 01:46:47;;;;;;;33.67;15.90;;;6.90;53.40;;;;;;5021624;28;20864;-88
2023/01/26 01:49:18;;;;;;;35.60;13.93;;;6.70;52.40;;;;;;5020351;28;20440;-89
2023/01/26 01:51:52;;;;;;;35.97;14.97;;;6.70;53.00;;;;;;5013016;28;20467;-88
2023/01/26 01:54:24;;;;;;;34.77;15.70;;;6.60;52.40;;;;;;5004575;28;20579;-88
2023/01/26 01:56:56;;;;;;;31.97;15.63;;;6.30;53.20;;;;;;5025022;28;20476;-86
2023/01/26 01:59:24;;;;;;;34.57;14.43;;;6.30;53.40;;;;;;5013986;28;21132;-88
2023/01/26 02:01:52;;;;;;;32.70;15.60;;;6.50;53.50;;;;;;5009860;28;20884;-87
2023/01/26 02:04:22;;;;;;;37.10;14.60;;;6.60;53.30;;;;;;5015446;28;20805;-88
2023/01/26 02:06:52;;;;;;;30.63;14.57;;;6.70;53.00;;;;;;5002973;28;20441;-88
2023/01/26 02:12:16;;;;;;;30.87;13.93;;;6.80;53.00;;;;;;5024697;28;20557;-87
2023/01/26 02:14:43;;;;;;;33.43;14.13;;;6.70;53.00;;;;;;5011055;28;20456;-88
2023/01/26 02:17:10;;;;;;;31.17;12.90;;;6.60;53.20;;;;;;5011902;28;20455;-88
2023/01/26 02:19:49;;;;;;;33.27;14.00;;;6.70;53.40;;;;;;5027553;28;20469;-89
2023/01/26 02:22:28;;;;;;;35.20;15.30;;;6.40;52.40;;;;;;5027637;28;20464;-88
2023/01/26 02:25:04;;;;;;;35.90;15.20;;;6.20;53.80;;;;;;5010078;28;20445;-88
2023/01/26 02:27:33;;;;;;;38.40;15.77;;;6.40;53.90;;;;;;5027783;28;20445;-87
2023/01/26 02:30:02;;;;;;;32.57;14.97;;;6.50;53.70;;;;;;5026425;28;20475;-89
2023/01/26 02:32:30;;;;;;;31.63;14.10;;;6.60;53.70;;;;;;5026848;28;20462;-88
2023/01/26 02:34:57;;;;;;;35.90;14.87;;;6.70;53.50;;;;;;5014131;28;20465;-88
2023/01/26 02:37:24;;;;;;;34.20;16.40;;;6.80;53.20;;;;;;5022618;28;20473;-89
2023/01/26 02:39:59;;;;;;;25.83;11.97;;;6.80;53.00;;;;;;5017547;28;20904;-89
2023/01/26 02:42:39;;;;;;;58.87;20.93;;;6.80;52.70;;;;;;5021024;28;20465;-87
2023/01/26 02:45:10;;;;;;;40.33;17.90;;;6.80;52.80;;;;;;5014440;28;20965;-88
2023/01/26 02:47:39;;;;;;;31.23;15.27;;;6.80;52.80;;;;;;5006578;28;20524;-87
2023/01/26 02:50:06;;;;;;;33.43;15.10;;;6.90;52.70;;;;;;5017579;28;20482;-89
2023/01/26 02:52:33;;;;;;;32.40;13.30;;;6.90;52.50;;;;;;5004889;28;21015;-85
2023/01/26 02:55:28;;;;;;;31.07;14.97;;;6.70;52.80;;;;;;5031851;28;20456;-88
2023/01/26 02:57:57;;;;;;;30.83;14.20;;;6.50;53.20;;;;;;5024552;28;20856;-88
2023/01/26 03:00:28;;;;;;;31.50;15.00;;;6.50;53.50;;;;;;5015440;28;20457;-88
2023/01/26 03:02:58;;;;;;;35.77;15.53;;;6.40;53.60;;;;;;5018917;28;20534;-90
2023/01/26 03:05:26;;;;;;;37.17;15.30;;;6.50;53.70;;;;;;5007225;28;20547;-88
2023/01/26 03:07:55;;;;;;;33.97;15.47;;;6.60;53.60;;;;;;5011454;28;20438;-88
2023/01/26 03:10:25;;;;;;;30.17;13.67;;;6.60;53.10;;;;;;5018562;28;20457;-87
2023/01/26 03:12:53;;;;;;;34.27;15.33;;;6.70;53.50;;;;;;5008565;28;20487;-88
2023/01/26 03:15:41;;;;;;;22.80;12.53;;;6.70;53.60;;;;;;5019692;28;20445;-87
2023/01/26 03:29:10;;;;;;;31.87;13.47;;;6.00;54.80;;;;;;5024486;28;20439;-88
2023/01/26 03:31:40;;;;;;;27.90;12.77;;;5.80;55.00;;;;;;5014078;28;21005;-88
2023/01/26 03:34:08;;;;;;;28.47;13.80;;;5.80;55.30;;;;;;5009863;28;20977;-87
2023/01/26 03:36:36;;;;;;;26.30;12.83;;;5.70;55.40;;;;;;5010056;28;20481;-88
2023/01/26 03:39:07;;;;;;;29.43;13.50;;;5.70;55.50;;;;;;5022946;28;20468;-87
2023/01/26 03:58:02;;;;;;;25.83;10.97;;;5.60;56.20;;;;;;5020988;28;20492;-89
2023/01/26 04:00:30;;;;;;;24.87;10.70;;;5.70;55.90;;;;;;5002495;28;20456;-88
2023/01/26 04:08:27;;;;;;;19.33;11.53;;;5.80;55.50;;;;;;5007701;28;20524;-88
2023/01/26 04:11:02;;;;;;;21.70;9.90;;;5.80;55.40;;;;;;5028039;28;20444;-86
2023/01/26 04:21:54;;;;;;;19.50;9.63;;;5.80;55.60;;;;;;5012449;28;20982;-88
2023/01/26 04:24:22;;;;;;;20.00;10.30;;;5.80;55.50;;;;;;5006355;28;20485;-88
2023/01/26 04:26:53;;;;;;;20.47;10.80;;;5.80;55.50;;;;;;5022500;28;21077;-87
2023/01/26 04:29:25;;;;;;;21.67;10.50;;;5.90;55.20;;;;;;5019813;28;20446;-87
2023/01/26 04:31:52;;;;;;;15.70;8.87;;;5.90;55.40;;;;;;5019275;28;21129;-88
2023/01/26 04:34:21;;;;;;;21.20;9.47;;;5.80;55.20;;;;;;5036016;28;21516;-88
2023/01/26 04:36:48;;;;;;;18.60;9.73;;;6.00;55.40;;;;;;5025452;28;20930;-88
2023/01/26 04:39:18;;;;;;;27.73;10.70;;;6.20;55.30;;;;;;5011059;28;20481;-87
2023/01/26 04:41:48;;;;;;;20.20;9.40;;;6.20;54.70;;;;;;5015614;28;20452;-88
2023/01/26 04:44:16;;;;;;;20.60;10.63;;;6.00;54.70;;;;;;5012853;28;20441;-87
2023/01/26 04:46:44;;;;;;;24.37;8.80;;;5.80;54.90;;;;;;5016776;28;20472;-88
2023/01/26 04:49:13;;;;;;;22.97;9.87;;;5.80;55.20;;;;;;5039038;28;20974;-88
2023/01/26 04:51:40;;;;;;;21.27;10.60;;;5.90;55.20;;;;;;5008900;28;20441;-88
2023/01/26 04:54:08;;;;;;;21.57;8.97;;;5.90;55.10;;;;;;5013950;28;20453;-85
2023/01/26 04:56:40;;;;;;;23.87;9.70;;;6.00;54.80;;;;;;5029092;28;20452;-86
2023/01/26 04:59:10;;;;;;;23.43;10.53;;;5.90;54.70;;;;;;5006585;28;20456;-86
2023/01/26 05:01:40;;;;;;;19.00;8.03;;;6.10;54.90;;;;;;5025164;28;20438;-87
2023/01/26 05:04:08;;;;;;;21.33;7.60;;;5.90;54.30;;;;;;5008112;28;20460;-84
2023/01/26 05:06:38;;;;;;;15.30;6.80;;;5.80;54.60;;;;;;5014553;28;20469;-88
2023/01/26 05:09:06;;;;;;;19.20;8.30;;;5.70;54.80;;;;;;5014181;28;20531;-88
2023/01/26 05:11:35;;;;;;;15.77;6.90;;;5.70;55.20;;;;;;5001309;28;20445;-88
2023/01/26 05:14:12;;;;;;;14.83;6.23;;;5.70;55.10;;;;;;5030636;28;21041;-89
2023/01/26 05:16:58;;;;;;;17.30;7.03;;;5.80;55.00;;;;;;5013875;28;20449;-88
2023/01/26 05:19:37;;;;;;;11.90;5.80;;;5.90;55.20;;;;;;5031890;28;20906;-89
2023/01/26 05:22:30;;;;;;;10.70;5.83;;;5.80;55.10;;;;;;5037720;28;20912;-87
2023/01/26 05:25:21;;;;;;;13.57;6.63;;;5.90;55.10;;;;;;5009318;28;20837;-88
2023/01/26 05:27:56;;;;;;;15.00;7.20;;;5.90;54.10;;;;;;5028615;28;20449;-89
2023/01/26 05:30:26;;;;;;;12.23;6.50;;;5.90;54.20;;;;;;5016041;28;20442;-88
2023/01/26 05:32:54;;;;;;;16.73;7.57;;;6.00;54.00;;;;;;5005518;28;20457;-88
2023/01/26 05:35:21;;;;;;;15.47;7.17;;;6.10;54.20;;;;;;5040051;28;20441;-88
2023/01/26 05:37:48;;;;;;;10.90;6.60;;;6.30;53.80;;;;;;5000115;28;20441;-88
2023/01/26 05:40:16;;;;;;;15.37;8.20;;;6.40;53.70;;;;;;5020400;28;20488;-89
2023/01/26 05:42:45;;;;;;;18.63;7.70;;;6.20;53.70;;;;;;5022235;28;21037;-89
2023/01/26 05:45:22;;;;;;;12.87;7.57;;;6.10;53.50;;;;;;5014212;28;20548;-89
2023/01/26 05:47:53;;;;;;;13.63;6.53;;;6.10;53.90;;;;;;5011990;28;20534;-89
2023/01/26 05:50:20;;;;;;;15.70;6.60;;;5.80;54.10;;;;;;5025115;28;20789;-88
2023/01/26 05:53:07;;;;;;;9.03;5.57;;;5.70;54.40;;;;;;5030245;28;20891;-88
2023/01/26 05:55:36;;;;;;;15.07;5.97;;;5.80;54.50;;;;;;5006994;28;20463;-88
2023/01/26 05:58:03;;;;;;;15.60;6.47;;;5.90;54.30;;;;;;5002216;28;20449;-88
2023/01/26 06:00:30;;;;;;;18.13;7.30;;;6.00;54.10;;;;;;5003583;28;20530;-86
2023/01/26 06:03:06;;;;;;;16.97;7.27;;;6.00;54.10;;;;;;5027535;28;20510;-88
2023/01/26 06:05:33;;;;;;;14.33;7.70;;;6.20;54.20;;;;;;5020200;28;20515;-89
2023/01/26 06:08:06;;;;;;;19.43;7.00;;;6.30;53.80;;;;;;5004915;28;20477;-88
2023/01/26 06:10:47;;;;;;;19.10;8.00;;;6.20;53.40;;;;;;5006291;28;20441;-88
2023/01/26 06:13:23;;;;;;;16.20;7.47;;;5.90;53.90;;;;;;5001507;28;20461;-88
2023/01/26 06:16:02;;;;;;;11.67;5.97;;;5.90;54.50;;;;;;5025598;28;20459;-88
2023/01/26 06:18:31;;;;;;;15.40;6.67;;;5.90;54.50;;;;;;5007765;28;20456;-87
2023/01/26 06:21:00;;;;;;;15.97;6.30;;;5.90;54.90;;;;;;5018511;28;20572;-89
2023/01/26 06:23:27;;;;;;;12.77;6.97;;;5.70;54.40;;;;;;5018942;28;20465;-89
2023/01/26 06:26:00;;;;;;;13.73;6.80;;;5.70;54.80;;;;;;5019526;28;20507;-88
2023/01/26 06:28:29;;;;;;;11.47;5.20;;;5.80;55.00;;;;;;5017448;28;20453;-89
2023/01/26 06:30:59;;;;;;;13.87;7.33;;;5.90;54.70;;;;;;5004472;28;20441;-90
2023/01/26 06:33:27;;;;;;;12.10;6.90;;;5.90;54.50;;;;;;5011002;28;20453;-88
2023/01/26 06:35:55;;;;;;;16.23;7.50;;;5.90;54.80;;;;;;5038964;28;20437;-87
2023/01/26 06:38:22;;;;;;;15.67;5.80;;;5.70;54.90;;;;;;5023541;28;20935;-87
2023/01/26 06:40:50;;;;;;;13.00;6.43;;;5.60;54.90;;;;;;5032230;28;20555;-89
2023/01/26 06:43:17;;;;;;;9.47;6.70;;;5.80;54.80;;;;;;5008975;28;20906;-88
2023/01/26 06:45:45;;;;;;;11.00;6.40;;;5.80;54.90;;;;;;5008489;28;20440;-87
2023/01/26 06:48:14;;;;;;;14.60;7.20;;;5.80;54.60;;;;;;5024167;28;20487;-87
2023/01/26 06:50:44;;;;;;;17.90;7.87;;;5.70;54.60;;;;;;5012545;28;21042;-89
2023/01/26 06:53:28;;;;;;;14.43;6.63;;;5.40;54.90;;;;;;5016939;28;20487;-88
2023/01/26 06:56:15;;;;;;;14.17;7.57;;;5.60;55.30;;;;;;5039275;28;20444;-88
2023/01/26 06:58:58;;;;;;;13.67;6.90;;;5.80;55.20;;;;;;5025490;28;21059;-89
2023/01/26 07:01:47;;;;;;;11.53;6.90;;;5.70;54.90;;;;;;5028444;28;20562;-88
2023/01/26 07:04:15;;;;;;;14.57;7.50;;;5.70;55.40;;;;;;5016255;28;20448;-88
2023/01/26 07:06:42;;;;;;;13.90;6.40;;;5.90;55.40;;;;;;5029387;28;20461;-87
2023/01/26 07:09:11;;;;;;;12.80;7.77;;;6.10;55.20;;;;;;5016736;28;20953;-87
2023/01/26 07:11:38;;;;;;;16.63;7.23;;;6.10;54.80;;;;;;5013441;28;20476;-87
2023/01/26 07:14:05;;;;;;;14.03;7.67;;;6.20;54.70;;;;;;5015882;28;20450;-88
2023/01/26 07:16:32;;;;;;;18.17;7.13;;;6.30;54.50;;;;;;5018860;28;20448;-88
2023/01/26 07:18:59;;;;;;;15.67;7.50;;;6.30;54.60;;;;;;5026642;28;20465;-88
2023/01/26 07:21:26;;;;;;;14.03;7.30;;;6.40;54.50;;;;;;5041190;28;21197;-87
2023/01/26 07:23:53;;;;;;;12.40;6.63;;;6.20;54.40;;;;;;5021522;28;20461;-87
2023/01/26 07:26:21;;;;;;;8.20;5.50;;;6.30;54.50;;;;;;5009313;28;20454;-88
2023/01/26 07:28:48;;;;;;;10.07;5.60;;;6.30;54.30;;;;;;5038503;28;20446;-87
2023/01/26 07:31:15;;;;;;;14.30;5.63;;;6.20;54.70;;;;;;5009401;28;20441;-88
2023/01/26 07:33:42;;;;;;;11.90;6.37;;;6.10;54.50;;;;;;5009350;28;20488;-87
2023/01/26 07:36:10;;;;;;;9.43;5.00;;;6.10;54.70;;;;;;5018822;28;20500;-86
2023/01/26 07:38:38;;;;;;;16.20;7.17;;;6.00;54.60;;;;;;5041709;28;20834;-88
2023/01/26 07:41:07;;;;;;;11.43;7.03;;;5.90;55.20;;;;;;5010322;28;20470;-88
2023/01/26 07:43:37;;;;;;;14.00;6.80;;;5.80;55.10;;;;;;5026209;28;20553;-87
2023/01/26 07:46:09;;;;;;;18.80;7.60;;;5.80;55.40;;;;;;5046102;28;20452;-85
2023/01/26 07:48:37;;;;;;;16.27;7.50;;;5.90;55.30;;;;;;5009583;28;20524;-88
2023/01/26 07:51:08;;;;;;;13.90;6.80;;;6.10;55.30;;;;;;5014567;28;20450;-88
2023/01/26 07:53:38;;;;;;;15.60;7.27;;;6.10;55.00;;;;;;5026528;28;20477;-88
2023/01/26 07:56:09;;;;;;;16.67;7.63;;;5.80;55.20;;;;;;5011992;28;20486;-88
2023/01/26 07:58:38;;;;;;;17.57;7.90;;;5.60;55.90;;;;;;5029763;28;20949;-86
2023/01/26 08:01:10;;;;;;;14.83;6.23;;;5.80;56.00;;;;;;5022298;28;20532;-88
2023/01/26 08:03:38;;;;;;;11.77;5.83;;;5.90;55.60;;;;;;5026694;28;20998;-87
2023/01/26 08:06:07;;;;;;;14.50;6.97;;;5.90;55.30;;;;;;5041536;28;20829;-88
2023/01/26 08:08:34;;;;;;;10.77;5.60;;;5.80;55.30;;;;;;5042140;28;20463;-88
2023/01/26 08:11:02;;;;;;;13.33;6.90;;;5.70;55.20;;;;;;5028813;28;20476;-88
2023/01/26 08:13:30;;;;;;;15.70;8.20;;;5.70;55.60;;;;;;5012908;28;20466;-88
2023/01/26 08:16:02;;;;;;;16.20;7.17;;;5.90;55.80;;;;;;5003673;28;20454;-87
2023/01/26 08:18:30;;;;;;;12.73;7.40;;;5.90;55.40;;;;;;5032572;28;20440;-87
2023/01/26 08:20:58;;;;;;;16.37;7.13;;;6.00;55.50;;;;;;5017022;28;20872;-88
2023/01/26 08:23:25;;;;;;;13.00;5.90;;;6.00;55.40;;;;;;5022660;28;20465;-88
2023/01/26 08:25:52;;;;;;;14.00;6.97;;;6.10;55.00;;;;;;5011854;28;20437;-87
2023/01/26 08:28:19;;;;;;;11.80;6.20;;;6.10;54.80;;;;;;5008911;28;20445;-87
2023/01/26 08:30:46;;;;;;;12.80;5.53;;;6.00;54.90;;;;;;5037106;28;20437;-87
2023/01/26 08:33:14;;;;;;;13.13;8.60;;;6.20;55.00;;;;;;5037572;28;20477;-88
2023/01/26 08:35:41;;;;;;;9.80;6.37;;;6.20;54.90;;;;;;5014499;28;20449;-88
2023/01/26 08:38:08;;;;;;;10.43;6.00;;;6.30;54.30;;;;;;5024201;28;20449;-87
2023/01/26 08:40:35;;;;;;;13.73;6.53;;;6.30;54.20;;;;;;5009909;28;20456;-88
2023/01/26 08:43:03;;;;;;;11.43;6.27;;;6.40;53.90;;;;;;5028581;28;20853;-88
2023/01/26 08:45:30;;;;;;;12.13;6.80;;;6.50;54.00;;;;;;5023067;28;20461;-88
2023/01/26 08:47:57;;;;;;;15.20;6.37;;;6.50;54.00;;;;;;5005837;28;20978;-87
2023/01/26 08:50:26;;;;;;;19.07;11.37;;;6.50;53.80;;;;;;5026762;28;20452;-88
2023/01/26 08:52:56;;;;;;;12.77;7.73;;;6.50;53.80;;;;;;5018713;28;20480;-85
2023/01/26 08:55:23;;;;;;;10.77;6.53;;;6.40;54.00;;;;;;5013654;28;20528;-88
2023/01/26 08:57:53;;;;;;;14.00;8.30;;;6.00;54.50;;;;;;5019832;28;20453;-88
2023/01/26 09:00:22;;;;;;;18.30;8.90;;;6.00;55.10;;;;;;5020010;28;20436;-88
2023/01/26 09:02:49;;;;;;;18.10;9.60;;;5.70;55.10;;;;;;5020379;28;20457;-89
2023/01/26 09:05:16;;;;;;;16.47;6.33;;;5.80;55.50;;;;;;5024541;28;20964;-87
2023/01/26 09:07:45;;;;;;;14.80;5.70;;;6.00;55.30;;;;;;5021410;28;20964;-87
2023/01/26 09:10:12;;;;;;;10.33;6.17;;;6.00;54.90;;;;;;5020240;28;20555;-87
2023/01/26 09:12:39;;;;;;;7.47;5.20;;;6.00;54.80;;;;;;5037395;28;20452;-86
2023/01/26 09:15:07;;;;;;;10.80;5.53;;;6.10;54.80;;;;;;5036388;28;20455;-89
2023/01/26 09:17:34;;;;;;;8.87;5.47;;;6.00;54.80;;;;;;5024780;28;20457;-88
2023/01/26 09:20:01;;;;;;;8.10;5.30;;;6.10;54.60;;;;;;5025725;28;20856;-88
2023/01/26 09:22:28;;;;;;;12.80;6.20;;;6.00;54.20;;;;;;5012922;28;20476;-88
2023/01/26 09:24:56;;;;;;;11.07;5.80;;;5.80;54.60;;;;;;5004695;28;20449;-87
2023/01/26 09:27:23;;;;;;;8.83;5.00;;;5.80;55.10;;;;;;5008821;28;20973;-87
2023/01/26 09:29:51;;;;;;;8.87;5.73;;;5.90;54.80;;;;;;5013373;28;20544;-88
2023/01/26 09:32:18;;;;;;;8.13;6.07;;;5.80;54.80;;;;;;5039010;28;20568;-88
2023/01/26 09:34:44;;;;;;;10.50;5.00;;;5.80;54.50;;;;;;5010252;28;20468;-88
2023/01/26 09:37:11;;;;;;;7.30;4.50;;;5.70;54.90;;;;;;5011249;28;20464;-88
2023/01/26 09:39:38;;;;;;;10.80;6.90;;;5.90;54.40;;;;;;5047809;28;20453;-86
2023/01/26 09:42:26;;;;;;;13.23;7.07;;;5.70;54.60;;;;;;5030720;28;20468;-85
2023/01/26 09:45:04;;;;;;;11.13;5.97;;;5.80;55.10;;;;;;5036265;28;20448;-86
2023/01/26 09:47:38;;;;;;;10.23;6.20;;;5.80;55.00;;;;;;5022482;28;21069;-87
2023/01/26 09:50:12;;;;;;;8.70;5.03;;;5.80;55.10;;;;;;5016227;28;20999;-88
2023/01/26 09:52:52;;;;;;;11.57;5.80;;;5.70;55.90;;;;;;5024874;28;20489;-87
2023/01/26 09:55:21;;;;;;;7.27;5.00;;;5.60;56.10;;;;;;5048275;28;20444;-88
2023/01/26 09:57:53;;;;;;;10.50;5.70;;;5.50;56.90;;;;;;5009089;28;20457;-87
2023/01/26 10:00:22;;;;;;;9.07;4.70;;;5.50;57.10;;;;;;5046180;28;20445;-87
2023/01/26 10:03:00;;;;;;;6.70;4.33;;;5.60;56.70;;;;;;5026248;28;20476;-87
2023/01/26 10:05:37;;;;;;;11.03;5.33;;;5.60;56.50;;;;;;5016751;28;20461;-87
2023/01/26 10:08:12;;;;;;;8.60;5.70;;;5.60;56.40;;;;;;5029222;28;20455;-86
2023/01/26 10:10:44;;;;;;;14.50;7.60;;;5.80;56.50;;;;;;5031979;28;20519;-87
2023/01/26 10:13:15;;;;;;;12.07;5.97;;;5.90;56.20;;;;;;5041618;28;20464;-87
2023/01/26 10:15:44;;;;;;;10.07;5.60;;;6.00;56.10;;;;;;5012611;28;20458;-87
2023/01/26 10:18:17;;;;;;;10.40;6.67;;;6.00;55.90;;;;;;5013689;28;21160;-87
2023/01/26 10:20:47;;;;;;;8.47;5.20;;;6.10;55.40;;;;;;5038566;28;20479;-87
2023/01/26 10:23:17;;;;;;;14.67;8.97;;;5.90;54.70;;;;;;5010514;28;20549;-87
2023/01/26 10:25:46;;;;;;;16.57;8.57;;;5.80;55.00;;;;;;5021087;28;20524;-87
2023/01/26 10:28:17;;;;;;;8.27;5.10;;;5.60;55.30;;;;;;5025624;28;20521;-87
2023/01/26 10:30:46;;;;;;;6.20;4.40;;;5.70;55.70;;;;;;5038888;28;21050;-88
2023/01/26 10:33:16;;;;;;;7.27;4.13;;;5.60;55.20;;;;;;5022869;28;20464;-87
2023/01/26 10:35:43;;;;;;;6.10;3.80;;;5.60;55.40;;;;;;5037668;28;20445;-87
2023/01/26 10:38:44;;;;;;;7.20;3.90;;;5.60;54.80;;;;;;5028606;28;20896;-87
2023/01/26 10:41:24;;;;;;;15.10;4.30;;;5.70;54.80;;;;;;4913727;28;20468;-86
2023/01/26 10:43:54;;;;;;;10.73;5.57;;;5.80;54.20;;;;;;4947559;28;20477;-86
2023/01/26 10:46:28;;;;;;;9.53;4.47;;;5.70;54.40;;;;;;4983312;28;20461;-85
2023/01/26 10:48:57;;;;;;;7.87;3.70;;;5.80;54.80;;;;;;5024061;28;20455;-87
2023/01/26 10:51:28;;;;;;;7.93;6.83;;;6.00;53.80;;;;;;5027187;28;20448;-87
2023/01/26 10:54:21;;;;;;;9.93;5.20;;;6.10;53.50;;;;;;5005942;28;21012;-87
2023/01/26 10:56:51;;;;;;;6.23;4.00;;;6.20;53.60;;;;;;5024922;28;20445;-86
2023/01/26 10:59:27;;;;;;;8.23;3.90;;;6.10;53.50;;;;;;5013745;28;21062;-87
2023/01/26 11:01:56;;;;;;;7.83;5.80;;;6.10;54.40;;;;;;5010428;28;20909;-86
2023/01/26 11:04:24;;;;;;;8.50;3.53;;;6.00;54.50;;;;;;5046522;28;20452;-87
2023/01/26 11:06:52;;;;;;;6.90;4.60;;;6.10;54.90;;;;;;5035138;28;20486;-87
2023/01/26 11:09:24;;;;;;;4.60;3.83;;;6.10;54.00;;;;;;5033048;28;20531;-87
2023/01/26 11:11:57;;;;;;;6.80;4.60;;;5.80;54.10;;;;;;5058336;28;20452;-88
2023/01/26 11:14:25;;;;;;;5.77;3.17;;;5.60;54.30;;;;;;5022544;28;20963;-88
2023/01/26 11:16:59;;;;;;;5.63;3.47;;;5.70;54.60;;;;;;5034990;28;20449;-87
2023/01/26 11:19:45;;;;;;;4.77;3.50;;;5.90;54.70;;;;;;5004364;28;20449;-86
2023/01/26 11:22:17;;;;;;;10.13;4.73;;;6.20;54.50;;;;;;5013136;28;20477;-86
2023/01/26 11:24:51;;;;;;;37.50;13.17;;;6.40;54.30;;;;;;5021922;28;20877;-85
2023/01/26 11:27:28;;;;;;;17.60;9.93;;;6.60;53.60;;;;;;5032084;28;20471;-87
2023/01/26 11:30:25;;;;;;;14.37;6.23;;;6.20;53.60;;;;;;5026897;28;20449;-87
2023/01/26 11:32:59;;;;;;;8.77;4.40;;;6.10;54.20;;;;;;5043560;28;20469;-87
2023/01/26 11:35:33;;;;;;;6.50;3.63;;;6.30;53.60;;;;;;5004791;28;20589;-85
2023/01/26 11:38:16;;;;;;;7.33;4.00;;;6.20;52.80;;;;;;5006326;28;20933;-87
2023/01/26 11:40:51;;;;;;;6.03;4.13;;;6.30;53.40;;;;;;5028031;28;20892;-87
2023/01/26 11:43:57;;;;;;;5.23;3.30;;;6.40;52.90;;;;;;5047650;28;20463;-87
2023/01/26 11:46:37;;;;;;;7.33;4.23;;;6.50;52.60;;;;;;4989825;28;20500;-87
2023/01/26 11:49:16;;;;;;;7.33;4.60;;;6.40;52.50;;;;;;5054899;28;20449;-87
2023/01/26 11:51:58;;;;;;;5.63;4.23;;;6.50;53.10;;;;;;5029027;28;20441;-87
2023/01/26 11:54:37;;;;;;;17.53;11.80;;;6.50;52.90;;;;;;5038012;28;20440;-88
2023/01/26 11:57:16;;;;;;;35.20;20.37;;;6.20;52.80;;;;;;5023172;28;20452;-86
2023/01/26 11:59:47;;;;;;;11.00;7.63;;;6.00;53.80;;;;;;5020860;28;20448;-88
2023/01/26 12:02:27;;;;;;;9.70;5.90;;;6.00;53.70;;;;;;5015948;28;20461;-88
2023/01/26 12:04:57;;;;;;;14.20;9.37;;;5.90;53.80;;;;;;5012564;28;20447;-87
2023/01/26 12:07:29;;;;;;;9.57;5.03;;;5.90;53.80;;;;;;5040243;28;20442;-88
2023/01/26 12:09:58;;;;;;;9.07;4.97;;;6.00;53.80;;;;;;5026799;28;20442;-87
2023/01/26 12:12:32;;;;;;;4.97;3.90;;;6.00;53.60;;;;;;5010337;28;20526;-87
2023/01/26 12:15:04;;;;;;;11.03;6.80;;;6.10;53.90;;;;;;5009782;28;20457;-87
2023/01/26 12:17:42;;;;;;;6.03;3.67;;;6.30;53.80;;;;;;5031975;28;20444;-87
2023/01/26 12:20:23;;;;;;;4.93;3.73;;;6.30;53.30;;;;;;5054198;28;20438;-84
2023/01/26 12:22:58;;;;;;;6.27;3.50;;;6.30;52.60;;;;;;5026942;28;20474;-88
2023/01/26 12:25:31;;;;;;;5.00;3.40;;;6.10;52.10;;;;;;5012436;28;20444;-88
2023/01/26 12:28:05;;;;;;;8.50;6.30;;;5.90;52.50;;;;;;5024614;28;20449;-87
2023/01/26 12:30:40;;;;;;;4.30;3.47;;;6.00;53.30;;;;;;5026117;28;21014;-87
2023/01/26 12:33:09;;;;;;;8.63;4.50;;;6.10;52.70;;;;;;5020354;28;20473;-88
2023/01/26 12:35:56;;;;;;;13.77;6.00;;;5.80;52.80;;;;;;5026384;28;20456;-88
2023/01/26 12:38:35;;;;;;;4.73;3.17;;;5.60;53.80;;;;;;5037292;28;20468;-87
2023/01/26 12:41:10;;;;;;;5.30;3.77;;;5.70;53.10;;;;;;5054557;28;21385;-88
2023/01/26 12:43:52;;;;;;;5.33;3.90;;;5.80;53.70;;;;;;5062110;28;20486;-87
2023/01/26 12:46:21;;;;;;;5.60;4.10;;;5.80;53.60;;;;;;5025558;28;20488;-88
2023/01/26 12:48:52;;;;;;;9.23;6.47;;;5.90;53.40;;;;;;5028083;28;20632;-88
2023/01/26 12:51:27;;;;;;;5.97;3.43;;;5.90;53.10;;;;;;5027476;28;20963;-88
2023/01/26 12:53:59;;;;;;;3.70;2.63;;;5.90;52.30;;;;;;5017207;28;20824;-85
2023/01/26 12:56:30;;;;;;;2.40;2.20;;;5.50;52.60;;;;;;5023473;28;20448;-87
2023/01/26 12:58:58;;;;;;;4.60;3.27;;;5.30;53.50;;;;;;5018164;28;20468;-87
2023/01/26 13:01:37;;;;;;;12.10;5.80;;;5.50;53.20;;;;;;5009506;28;20453;-87
2023/01/26 13:04:08;;;;;;;5.47;4.40;;;5.30;53.40;;;;;;5018878;28;20484;-88
2023/01/26 13:06:36;;;;;;;3.13;2.80;;;5.30;53.80;;;;;;5005684;28;20446;-85
2023/01/26 13:09:20;;;;;;;4.27;3.13;;;5.40;53.60;;;;;;5012524;28;20457;-88
2023/01/26 13:11:52;;;;;;;6.13;4.00;;;5.50;53.40;;;;;;5039966;28;20953;-88
2023/01/26 13:14:32;;;;;;;4.30;3.23;;;5.50;53.40;;;;;;5011907;28;20446;-89
2023/01/26 13:17:54;;;;;;;6.77;5.27;;;5.60;53.90;;;;;;5016808;28;20905;-89
2023/01/26 13:20:50;;;;;;;4.30;2.87;;;5.80;53.70;;;;;;5022915;28;20499;-87
2023/01/26 13:23:43;;;;;;;8.13;5.93;;;6.00;52.80;;;;;;5022207;28;20856;-87
2023/01/26 13:26:16;;;;;;;9.67;4.57;;;6.10;52.60;;;;;;5020054;28;20461;-86
2023/01/26 13:28:43;;;;;;;5.17;3.73;;;5.80;52.00;;;;;;5039748;28;20437;-86
2023/01/26 13:31:11;;;;;;;7.00;3.97;;;5.70;52.50;;;;;;5014611;28;20460;-87
2023/01/26 13:33:39;;;;;;;4.90;3.70;;;5.50;52.70;;;;;;5026675;28;20503;-88
2023/01/26 13:36:14;;;;;;;10.70;5.10;;;5.50;53.10;;;;;;5042159;28;20465;-87
2023/01/26 13:38:47;;;;;;;7.23;3.63;;;5.40;53.30;;;;;;5036690;28;20448;-88
2023/01/26 13:41:19;;;;;;;8.30;5.33;;;5.50;53.60;;;;;;5001633;28;20443;-88
2023/01/26 13:43:50;;;;;;;3.20;2.60;;;5.30;53.10;;;;;;5021000;28;20491;-87
2023/01/26 13:46:23;;;;;;;2.80;2.37;;;5.30;53.30;;;;;;5018478;28;20497;-88
2023/01/26 13:48:51;;;;;;;3.07;2.60;;;5.40;52.70;;;;;;5026529;28;20479;-87
2023/01/26 13:51:21;;;;;;;2.70;2.40;;;5.40;52.90;;;;;;5009386;28;20441;-88